Time;durP1;ratioP1;P1;durP2;ratioP2;P2;SDS_P1;SDS_P2;PMS_P1;PMS_P2;Temp;Humidity;BMP_temperature;BMP_pressure;BME280_temperature;BME280_humidity;BME280_pressure;Samples;Min_cycle;Max_cycle;Signal;HPM_P1;HPM_P2
2022/08/07 00:01:48;;;;;;;;;;;22.90;44.40;;;;;;5065155;28;19925;-64
2022/08/07 00:04:15;;;;;;;;;;;22.90;44.40;;;;;;5057450;28;19925;-63
2022/08/07 00:06:42;;;;;;;;;;;22.90;44.40;;;;;;5065268;28;20003;-64
2022/08/07 00:09:08;;;;;;;;;;;22.90;44.40;;;;;;5059374;28;19940;-64
2022/08/07 00:11:35;;;;;;;;;;;22.90;44.40;;;;;;5054211;28;19921;-64
2022/08/07 00:14:04;;;;;;;;;;;22.90;44.40;;;;;;5078188;28;19931;-64
2022/08/07 00:16:30;;;;;;;;;;;22.90;44.40;;;;;;5048165;28;19924;-64
2022/08/07 00:18:57;;;;;;;;;;;22.90;44.50;;;;;;5060490;28;19932;-64
2022/08/07 00:21:24;;;;;;;;;;;22.90;44.40;;;;;;5059789;28;21914;-64
2022/08/07 00:23:50;;;;;;;;;;;22.90;44.40;;;;;;5069477;28;20297;-64
2022/08/07 00:26:17;;;;;;;;;;;22.90;44.50;;;;;;5069990;28;19974;-64
2022/08/07 00:28:44;;;;;;;;;;;22.80;44.40;;;;;;5069270;28;19924;-64
2022/08/07 00:31:12;;;;;;;;;;;22.90;44.50;;;;;;5083428;28;19924;-64
2022/08/07 00:33:39;;;;;;;;;;;22.90;44.50;;;;;;5084244;28;20353;-64
2022/08/07 00:36:06;;;;;;;;;;;22.80;44.40;;;;;;5083988;28;20818;-64
2022/08/07 00:38:35;;;;;;;;;;;22.80;44.40;;;;;;5087384;28;19934;-64
2022/08/07 00:41:02;;;;;;;;;;;22.80;44.40;;;;;;5085928;28;20108;-64
2022/08/07 00:43:29;;;;;;;;;;;22.80;44.50;;;;;;5085643;28;19923;-64
2022/08/07 00:45:55;;;;;;;;;;;22.80;44.50;;;;;;5065479;28;19962;-64
2022/08/07 00:48:24;;;;;;;;;;;22.80;44.50;;;;;;5080159;28;19931;-64
2022/08/07 00:50:51;;;;;;;;;;;22.80;44.50;;;;;;5081840;28;19949;-64
2022/08/07 00:53:18;;;;;;;;;;;22.80;44.50;;;;;;5083455;28;20388;-63
2022/08/07 00:55:45;;;;;;;;;;;22.80;44.50;;;;;;5078817;28;19925;-64
2022/08/07 00:58:12;;;;;;;;;;;22.80;44.50;;;;;;5056492;28;19999;-64
2022/08/07 01:00:38;;;;;;;;;;;22.80;44.50;;;;;;5092134;28;19925;-64
2022/08/07 01:03:05;;;;;;;;;;;22.80;44.60;;;;;;5070189;28;19920;-64
2022/08/07 01:05:33;;;;;;;;;;;22.80;44.50;;;;;;5078166;28;19997;-64
2022/08/07 01:08:00;;;;;;;;;;;22.80;44.50;;;;;;5070400;28;19924;-64
2022/08/07 01:10:27;;;;;;;;;;;22.80;44.60;;;;;;5089471;27;19920;-64
2022/08/07 01:12:54;;;;;;;;;;;22.80;44.50;;;;;;5069772;28;20023;-64
2022/08/07 01:15:20;;;;;;;;;;;22.80;44.50;;;;;;5088144;28;19927;-64
2022/08/07 01:17:47;;;;;;;;;;;22.80;44.60;;;;;;5089721;28;19932;-64
2022/08/07 01:20:15;;;;;;;;;;;22.80;44.60;;;;;;5082278;28;19931;-63
2022/08/07 01:22:43;;;;;;;;;;;22.80;44.60;;;;;;5075123;28;19924;-64
2022/08/07 01:25:10;;;;;;;;;;;22.80;44.60;;;;;;5101812;28;20289;-62
2022/08/07 01:27:37;;;;;;;;;;;22.80;44.60;;;;;;5066762;28;20365;-64
2022/08/07 01:30:04;;;;;;;;;;;22.80;44.60;;;;;;5068982;28;20372;-64
2022/08/07 01:32:31;;;;;;;;;;;22.70;44.60;;;;;;5075243;28;19964;-64
2022/08/07 01:34:58;;;;;;;;;;;22.80;44.60;;;;;;5068102;28;19984;-64
2022/08/07 01:37:25;;;;;;;;;;;22.70;44.60;;;;;;5063832;28;20014;-64
2022/08/07 01:39:53;;;;;;;;;;;22.70;44.60;;;;;;5068324;28;19924;-63
2022/08/07 01:42:20;;;;;;;;;;;22.70;44.60;;;;;;5055696;28;19956;-64
2022/08/07 01:44:46;;;;;;;;;;;22.70;44.50;;;;;;5073600;28;19977;-64
2022/08/07 01:47:13;;;;;;;;;;;22.70;44.60;;;;;;5084811;28;20136;-64
2022/08/07 01:49:40;;;;;;;;;;;22.70;44.60;;;;;;5079758;28;20013;-64
2022/08/07 01:52:07;;;;;;;;;;;22.70;44.60;;;;;;5079453;28;19959;-62
2022/08/07 01:54:35;;;;;;;;;;;22.70;44.60;;;;;;5077367;28;19925;-64
2022/08/07 01:57:04;;;;;;;;;;;22.70;44.60;;;;;;5097465;28;20294;-63
2022/08/07 01:59:32;;;;;;;;;;;22.70;44.60;;;;;;5055049;28;19920;-64
2022/08/07 02:02:02;;;;;;;;;;;22.70;44.60;;;;;;5071306;28;19925;-64
2022/08/07 02:04:30;;;;;;;;;;;22.70;44.60;;;;;;5075993;28;19994;-64
2022/08/07 02:06:57;;;;;;;;;;;22.70;44.60;;;;;;5062933;28;20007;-64
2022/08/07 02:09:24;;;;;;;;;;;22.70;44.60;;;;;;5058974;28;20366;-64
2022/08/07 02:11:50;;;;;;;;;;;22.70;44.60;;;;;;5078583;28;19920;-63
2022/08/07 02:14:19;;;;;;;;;;;22.70;44.60;;;;;;5077387;28;19951;-64
2022/08/07 02:16:47;;;;;;;;;;;22.70;44.60;;;;;;5045367;28;20019;-64
2022/08/07 02:19:13;;;;;;;;;;;22.70;44.60;;;;;;5065015;28;19927;-64
2022/08/07 02:21:40;;;;;;;;;;;22.60;44.50;;;;;;5085812;28;19927;-63
2022/08/07 02:24:07;;;;;;;;;;;22.70;44.60;;;;;;5087959;28;19939;-64
2022/08/07 02:26:34;;;;;;;;;;;22.60;44.50;;;;;;5077757;28;20018;-64
2022/08/07 02:29:01;;;;;;;;;;;22.70;44.50;;;;;;5059480;28;19920;-63
2022/08/07 02:31:29;;;;;;;;;;;22.70;44.50;;;;;;5093562;28;20317;-64
2022/08/07 02:33:56;;;;;;;;;;;22.60;44.40;;;;;;5074568;28;19959;-64
2022/08/07 02:36:23;;;;;;;;;;;22.70;44.50;;;;;;5069694;28;20014;-64
2022/08/07 02:38:50;;;;;;;;;;;22.60;44.40;;;;;;5087351;28;19920;-64
2022/08/07 02:41:17;;;;;;;;;;;22.60;44.40;;;;;;5095100;28;20037;-63
2022/08/07 02:43:44;;;;;;;;;;;22.60;44.40;;;;;;5082523;28;20080;-64
2022/08/07 02:46:10;;;;;;;;;;;22.60;44.40;;;;;;5087198;28;19921;-64
2022/08/07 02:48:39;;;;;;;;;;;22.60;44.40;;;;;;5070773;28;19929;-63
2022/08/07 02:51:07;;;;;;;;;;;22.60;44.40;;;;;;5104505;27;19966;-64
2022/08/07 02:53:34;;;;;;;;;;;22.60;44.40;;;;;;5085221;28;19932;-64
2022/08/07 02:56:01;;;;;;;;;;;22.60;44.40;;;;;;5086989;28;19924;-64
2022/08/07 02:58:28;;;;;;;;;;;22.60;44.40;;;;;;5099234;28;19972;-63
2022/08/07 03:00:56;;;;;;;;;;;22.60;44.40;;;;;;5059564;28;20022;-64
2022/08/07 03:03:23;;;;;;;;;;;22.60;44.40;;;;;;5067699;28;19924;-64
2022/08/07 03:05:52;;;;;;;;;;;22.60;44.40;;;;;;5082427;28;19986;-64
2022/08/07 03:08:19;;;;;;;;;;;22.60;44.40;;;;;;5081196;28;19924;-62
2022/08/07 03:10:46;;;;;;;;;;;22.60;44.40;;;;;;5070856;28;20022;-64
2022/08/07 03:13:13;;;;;;;;;;;22.60;44.60;;;;;;5088759;28;20250;-62
2022/08/07 03:15:40;;;;;;;;;;;22.60;44.40;;;;;;5087916;28;19920;-62
2022/08/07 03:18:07;;;;;;;;;;;22.60;44.40;;;;;;5083664;28;19920;-62
2022/08/07 03:20:33;;;;;;;;;;;22.60;44.40;;;;;;5092049;28;19923;-62
2022/08/07 03:23:02;;;;;;;;;;;22.60;44.40;;;;;;5082998;28;20034;-62
2022/08/07 03:25:28;;;;;;;;;;;22.60;44.40;;;;;;5078870;28;19920;-62
2022/08/07 03:27:55;;;;;;;;;;;22.60;44.40;;;;;;5087955;28;20288;-62
2022/08/07 03:30:22;;;;;;;;;;;22.60;44.40;;;;;;5091649;28;19920;-62
2022/08/07 03:32:49;;;;;;;;;;;22.60;44.40;;;;;;5089550;28;20475;-61
2022/08/07 03:35:16;;;;;;;;;;;22.60;44.40;;;;;;5074871;28;19924;-62
2022/08/07 03:37:43;;;;;;;;;;;22.60;44.40;;;;;;5092833;28;19978;-61
2022/08/07 03:40:11;;;;;;;;;;;22.60;44.40;;;;;;5067843;28;19935;-62
2022/08/07 03:42:38;;;;;;;;;;;22.60;45.00;;;;;;5068458;28;19970;-63
2022/08/07 03:45:05;;;;;;;;;;;22.50;44.30;;;;;;5100055;28;20343;-62
2022/08/07 03:47:32;;;;;;;;;;;22.50;44.30;;;;;;5074976;28;20407;-62
2022/08/07 03:49:58;;;;;;;;;;;22.50;44.30;;;;;;5074469;28;20023;-62
2022/08/07 03:52:26;;;;;;;;;;;22.50;44.30;;;;;;5089189;28;19924;-62
2022/08/07 03:54:53;;;;;;;;;;;22.50;44.30;;;;;;5089591;28;19966;-64
2022/08/07 03:57:21;;;;;;;;;;;22.50;44.40;;;;;;5090357;28;19985;-62
2022/08/07 03:59:48;;;;;;;;;;;22.50;44.30;;;;;;5063307;28;20003;-62
2022/08/07 04:02:15;;;;;;;;;;;22.50;44.30;;;;;;5071151;28;19989;-64
2022/08/07 04:04:41;;;;;;;;;;;22.50;44.30;;;;;;5089417;28;19920;-63
2022/08/07 04:07:08;;;;;;;;;;;22.50;44.30;;;;;;5074619;28;19965;-63
2022/08/07 04:09:35;;;;;;;;;;;22.50;44.30;;;;;;5067398;28;20362;-64
2022/08/07 04:12:04;;;;;;;;;;;22.50;44.30;;;;;;5074262;28;19923;-64
2022/08/07 04:14:32;;;;;;;;;;;22.50;44.30;;;;;;5088520;28;19927;-64
2022/08/07 04:16:58;;;;;;;;;;;22.50;44.30;;;;;;5088661;28;19974;-64
2022/08/07 04:19:25;;;;;;;;;;;22.50;44.30;;;;;;5108255;28;20358;-63
2022/08/07 04:21:52;;;;;;;;;;;22.50;44.30;;;;;;5057349;28;19920;-63
2022/08/07 04:24:19;;;;;;;;;;;22.50;44.30;;;;;;5087894;28;19921;-64
2022/08/07 04:26:46;;;;;;;;;;;22.50;44.30;;;;;;5072352;28;19935;-63
2022/08/07 04:29:12;;;;;;;;;;;22.40;44.20;;;;;;5097486;28;20340;-64
2022/08/07 04:31:41;;;;;;;;;;;22.50;44.30;;;;;;5073581;28;19924;-63
2022/08/07 04:34:07;;;;;;;;;;;22.50;44.30;;;;;;5091695;28;19924;-64
2022/08/07 04:36:34;;;;;;;;;;;22.50;44.30;;;;;;5076590;28;20004;-64
2022/08/07 04:39:01;;;;;;;;;;;22.50;44.30;;;;;;5071838;28;19950;-64
2022/08/07 04:41:27;;;;;;;;;;;22.50;44.40;;;;;;5070615;28;19963;-63
2022/08/07 04:43:54;;;;;;;;;;;22.50;44.40;;;;;;5092020;28;19920;-63
2022/08/07 04:46:23;;;;;;;;;;;22.50;44.40;;;;;;5090854;28;19924;-63
2022/08/07 04:48:54;;;;;;;;;;;22.50;44.30;;;;;;5076569;28;19920;-64
2022/08/07 04:51:26;;;;;;;;;;;22.50;44.30;;;;;;5108082;27;20316;-63
2022/08/07 04:53:53;;;;;;;;;;;22.40;44.20;;;;;;5077092;28;19931;-63
2022/08/07 04:56:21;;;;;;;;;;;22.40;44.30;;;;;;5065566;28;20010;-63
2022/08/07 04:58:49;;;;;;;;;;;22.40;44.30;;;;;;5075176;28;19925;-63
2022/08/07 05:01:17;;;;;;;;;;;22.40;44.30;;;;;;5095836;27;19931;-64
2022/08/07 05:03:45;;;;;;;;;;;22.40;44.40;;;;;;5081665;28;19931;-63
2022/08/07 05:06:14;;;;;;;;;;;22.40;44.30;;;;;;5108191;27;19920;-64
2022/08/07 05:08:44;;;;;;;;;;;22.40;44.30;;;;;;5095403;28;19955;-63
2022/08/07 05:11:14;;;;;;;;;;;22.40;44.40;;;;;;5087700;28;19920;-64
2022/08/07 05:13:45;;;;;;;;;;;22.40;44.40;;;;;;5093072;28;19923;-62
2022/08/07 05:16:12;;;;;;;;;;;22.40;44.50;;;;;;5095449;28;19920;-63
2022/08/07 05:18:39;;;;;;;;;;;22.40;44.40;;;;;;5090920;28;20277;-63
2022/08/07 05:21:08;;;;;;;;;;;22.40;44.50;;;;;;5101270;28;20011;-63
2022/08/07 05:23:38;;;;;;;;;;;22.40;44.50;;;;;;5090301;28;19920;-63
2022/08/07 05:26:05;;;;;;;;;;;22.40;44.50;;;;;;5063688;28;19920;-64
2022/08/07 05:28:32;;;;;;;;;;;22.40;44.50;;;;;;5083091;28;20024;-64
2022/08/07 05:30:58;;;;;;;;;;;22.40;44.50;;;;;;5103802;27;19919;-64
2022/08/07 05:33:25;;;;;;;;;;;22.40;44.60;;;;;;5074166;28;19924;-64
2022/08/07 05:35:52;;;;;;;;;;;22.40;44.60;;;;;;5064533;28;19964;-64
2022/08/07 05:38:19;;;;;;;;;;;22.40;44.60;;;;;;5055524;28;19920;-64
2022/08/07 05:40:47;;;;;;;;;;;22.40;44.60;;;;;;5094422;27;19920;-63
2022/08/07 05:43:13;;;;;;;;;;;22.40;44.70;;;;;;5090017;28;19923;-63
2022/08/07 05:45:40;;;;;;;;;;;22.40;44.70;;;;;;5061660;28;19927;-63
2022/08/07 05:48:07;;;;;;;;;;;22.40;44.80;;;;;;5068815;28;20031;-64
2022/08/07 05:50:34;;;;;;;;;;;22.40;44.90;;;;;;5077689;28;19920;-64
2022/08/07 05:53:01;;;;;;;;;;;22.40;44.90;;;;;;5090272;28;19927;-63
2022/08/07 05:55:28;;;;;;;;;;;22.40;44.90;;;;;;5068614;28;20386;-63
2022/08/07 05:57:56;;;;;;;;;;;22.40;44.90;;;;;;5067175;28;20026;-64
2022/08/07 06:00:23;;;;;;;;;;;22.40;45.00;;;;;;5067039;28;19924;-63
2022/08/07 06:02:50;;;;;;;;;;;22.40;45.00;;;;;;5072497;28;19955;-64
2022/08/07 06:05:17;;;;;;;;;;;22.40;45.00;;;;;;5089214;28;19924;-63
2022/08/07 06:07:43;;;;;;;;;;;22.40;45.10;;;;;;5086052;28;19943;-63
2022/08/07 06:10:10;;;;;;;;;;;22.40;45.10;;;;;;5063961;28;19924;-63
2022/08/07 06:12:37;;;;;;;;;;;22.50;45.20;;;;;;5083748;28;20373;-63
2022/08/07 06:15:06;;;;;;;;;;;22.40;45.10;;;;;;5069759;28;21393;-64
2022/08/07 06:17:33;;;;;;;;;;;22.50;45.20;;;;;;5088570;28;20283;-63
2022/08/07 06:20:00;;;;;;;;;;;22.50;45.30;;;;;;5089225;28;19981;-64
2022/08/07 06:22:27;;;;;;;;;;;22.40;45.20;;;;;;5072204;28;19924;-63
2022/08/07 06:24:53;;;;;;;;;;;22.50;45.30;;;;;;5066333;28;19982;-63
2022/08/07 06:27:21;;;;;;;;;;;22.50;45.70;;;;;;5080684;28;20350;-63
2022/08/07 06:29:47;;;;;;;;;;;22.50;45.90;;;;;;5052831;28;19928;-63
2022/08/07 06:32:15;;;;;;;;;;;22.50;45.40;;;;;;5076981;28;19920;-64
2022/08/07 06:34:42;;;;;;;;;;;22.40;45.30;;;;;;5064573;28;19921;-63
2022/08/07 06:37:09;;;;;;;;;;;22.50;45.40;;;;;;5067000;28;19920;-63
2022/08/07 06:39:35;;;;;;;;;;;22.50;45.40;;;;;;5075196;28;19920;-63
2022/08/07 06:42:03;;;;;;;;;;;22.50;45.40;;;;;;5056711;28;19920;-63
2022/08/07 06:44:29;;;;;;;;;;;22.50;45.50;;;;;;5084009;28;19932;-63
2022/08/07 06:46:56;;;;;;;;;;;22.50;45.50;;;;;;5067692;28;20408;-63
2022/08/07 06:49:24;;;;;;;;;;;22.50;45.50;;;;;;5065208;28;19978;-63
2022/08/07 06:51:51;;;;;;;;;;;22.50;45.50;;;;;;5057659;28;20006;-64
2022/08/07 06:54:17;;;;;;;;;;;22.50;45.50;;;;;;5069886;28;19974;-63
2022/08/07 06:56:46;;;;;;;;;;;22.50;46.10;;;;;;5069669;28;20011;-63
2022/08/07 06:59:14;;;;;;;;;;;22.40;45.40;;;;;;5078814;28;19927;-63
2022/08/07 07:01:41;;;;;;;;;;;22.40;45.50;;;;;;5079421;28;19920;-63
2022/08/07 07:04:08;;;;;;;;;;;22.50;45.60;;;;;;5071645;28;19970;-63
2022/08/07 07:06:36;;;;;;;;;;;22.50;45.60;;;;;;5066727;28;20352;-63
2022/08/07 07:09:16;;;;;;;;;;;22.50;45.50;;;;;;5060508;28;20258;-63
2022/08/07 07:11:43;;;;;;;;;;;22.50;45.50;;;;;;5086422;28;20034;-64
2022/08/07 07:14:13;;;;;;;;;;;22.50;45.60;;;;;;5084873;28;20354;-63
2022/08/07 07:16:41;;;;;;;;;;;22.50;45.60;;;;;;5054983;28;20000;-64
2022/08/07 07:19:08;;;;;;;;;;;22.50;45.60;;;;;;5057217;28;19962;-64
2022/08/07 07:21:37;;;;;;;;;;;22.50;45.60;;;;;;5071553;28;19939;-64
2022/08/07 07:24:04;;;;;;;;;;;22.50;45.60;;;;;;5062111;28;20023;-63
2022/08/07 07:26:31;;;;;;;;;;;22.50;45.60;;;;;;5074915;28;19920;-64
2022/08/07 07:28:59;;;;;;;;;;;22.50;45.60;;;;;;5086614;28;19931;-61
2022/08/07 07:31:26;;;;;;;;;;;22.50;45.60;;;;;;5093795;28;19920;-62
2022/08/07 07:33:56;;;;;;;;;;;22.50;45.60;;;;;;5095823;28;19920;-61
2022/08/07 07:36:23;;;;;;;;;;;22.50;45.60;;;;;;5078476;28;19967;-63
2022/08/07 07:38:51;;;;;;;;;;;22.50;45.50;;;;;;5069698;28;20303;-63
2022/08/07 07:41:18;;;;;;;;;;;22.50;45.50;;;;;;5088924;28;19924;-63
2022/08/07 07:43:45;;;;;;;;;;;22.50;45.50;;;;;;5088017;28;20010;-64
2022/08/07 07:46:12;;;;;;;;;;;22.60;45.60;;;;;;5088634;28;19920;-63
2022/08/07 07:48:39;;;;;;;;;;;22.60;45.60;;;;;;5071826;28;19971;-63
2022/08/07 07:51:06;;;;;;;;;;;22.50;45.60;;;;;;5081588;28;19932;-63
2022/08/07 07:53:32;;;;;;;;;;;22.60;45.60;;;;;;5087885;28;19924;-63
2022/08/07 07:56:00;;;;;;;;;;;22.60;45.60;;;;;;5085843;28;20649;-63
2022/08/07 07:58:28;;;;;;;;;;;22.60;45.60;;;;;;5082401;28;20395;-64
2022/08/07 08:00:55;;;;;;;;;;;22.60;45.60;;;;;;5061564;28;19921;-64
2022/08/07 08:03:22;;;;;;;;;;;22.50;45.50;;;;;;5094640;28;19976;-64
2022/08/07 08:05:49;;;;;;;;;;;22.60;45.50;;;;;;5081242;28;19928;-64
2022/08/07 08:08:15;;;;;;;;;;;22.60;45.40;;;;;;5060876;28;20324;-63
2022/08/07 08:10:42;;;;;;;;;;;22.60;45.40;;;;;;5062819;28;19974;-64
2022/08/07 08:13:10;;;;;;;;;;;22.50;45.30;;;;;;5060308;28;19973;-64
2022/08/07 08:15:38;;;;;;;;;;;22.60;45.30;;;;;;5052462;28;20361;-63
2022/08/07 08:18:05;;;;;;;;;;;22.60;45.30;;;;;;5084784;28;19928;-64
2022/08/07 08:20:32;;;;;;;;;;;22.60;45.30;;;;;;5081740;28;20339;-62
2022/08/07 08:28:26;;;;;;;;;;;22.60;45.10;;;;;;5047668;28;19933;-63
2022/08/07 08:30:58;;;;;;;;;;;22.60;45.00;;;;;;5082483;28;19986;-64
2022/08/07 08:33:26;;;;;;;;;;;22.60;45.00;;;;;;5084821;28;19920;-64
2022/08/07 08:35:54;;;;;;;;;;;22.50;44.90;;;;;;5084511;28;19927;-63
2022/08/07 08:38:22;;;;;;;;;;;22.60;44.90;;;;;;5101595;27;19938;-63
2022/08/07 08:40:51;;;;;;;;;;;22.60;44.80;;;;;;5078603;28;20000;-63
2022/08/07 08:43:19;;;;;;;;;;;22.50;44.60;;;;;;5107096;27;19920;-63
2022/08/07 08:45:48;;;;;;;;;;;22.60;44.60;;;;;;5103975;27;19928;-63
2022/08/07 08:48:18;;;;;;;;;;;22.60;44.50;;;;;;5113236;27;20265;-62
2022/08/07 08:50:47;;;;;;;;;;;22.60;44.50;;;;;;5094542;28;19927;-62
2022/08/07 08:53:18;;;;;;;;;;;22.50;44.40;;;;;;5096410;28;19927;-62
2022/08/07 08:55:45;;;;;;;;;;;22.60;44.40;;;;;;5076505;28;20396;-62
2022/08/07 08:58:12;;;;;;;;;;;22.50;44.40;;;;;;5080584;28;20397;-62
2022/08/07 09:00:40;;;;;;;;;;;22.50;44.30;;;;;;5080547;28;19969;-62
2022/08/07 09:03:11;;;;;;;;;;;22.60;44.40;;;;;;5087731;28;19923;-62
2022/08/07 09:05:40;;;;;;;;;;;22.50;44.40;;;;;;5082626;28;19920;-62
2022/08/07 09:08:12;;;;;;;;;;;22.50;44.30;;;;;;5102108;27;19974;-62
2022/08/07 09:10:43;;;;;;;;;;;22.50;44.30;;;;;;5065882;28;19924;-62
2022/08/07 09:13:13;;;;;;;;;;;22.50;44.30;;;;;;5094151;28;20209;-62
2022/08/07 09:15:43;;;;;;;;;;;22.50;44.30;;;;;;5071194;28;19929;-62
2022/08/07 09:18:14;;;;;;;;;;;22.60;44.40;;;;;;5068551;28;20280;-62
2022/08/07 09:20:43;;;;;;;;;;;22.60;44.40;;;;;;5073367;28;20381;-62
2022/08/07 09:23:13;;;;;;;;;;;22.60;44.50;;;;;;5077538;28;20369;-63
2022/08/07 09:25:42;;;;;;;;;;;22.60;44.40;;;;;;5081297;28;19924;-62
2022/08/07 09:28:10;;;;;;;;;;;22.50;44.30;;;;;;5064798;28;19931;-62
2022/08/07 09:30:47;;;;;;;;;;;22.60;44.30;;;;;;5050516;28;20409;-62
2022/08/07 09:33:19;;;;;;;;;;;22.50;44.00;;;;;;5065914;28;19920;-62
2022/08/07 09:35:48;;;;;;;;;;;22.50;43.90;;;;;;5060978;28;19972;-61
2022/08/07 09:38:18;;;;;;;;;;;22.50;43.80;;;;;;5078726;28;20003;-62
2022/08/07 09:40:55;;;;;;;;;;;22.50;43.50;;;;;;5042557;28;19964;-62
2022/08/07 09:43:25;;;;;;;;;;;22.50;43.60;;;;;;5080911;28;19927;-62
2022/08/07 09:45:54;;;;;;;;;;;22.50;43.70;;;;;;5062393;28;19921;-62
2022/08/07 09:48:26;;;;;;;;;;;22.50;43.70;;;;;;5065889;28;19921;-62
2022/08/07 09:50:55;;;;;;;;;;;22.50;43.80;;;;;;5049566;28;19960;-62
2022/08/07 09:53:22;;;;;;;;;;;22.50;43.90;;;;;;5065876;28;19920;-62
2022/08/07 09:56:00;;;;;;;;;;;22.50;43.90;;;;;;5065671;28;19960;-62
2022/08/07 09:58:39;;;;;;;;;;;22.50;44.00;;;;;;5073938;28;20034;-62
2022/08/07 10:01:09;;;;;;;;;;;22.50;44.00;;;;;;5081050;28;19924;-62
2022/08/07 10:03:40;;;;;;;;;;;22.50;44.00;;;;;;5065778;28;20361;-62
2022/08/07 10:06:19;;;;;;;;;;;22.40;43.90;;;;;;5063535;28;19931;-62
2022/08/07 10:09:07;;;;;;;;;;;22.50;43.90;;;;;;5060524;28;19932;-62
2022/08/07 10:11:37;;;;;;;;;;;22.50;43.90;;;;;;5061361;28;20054;-62
2022/08/07 10:14:06;;;;;;;;;;;22.50;43.90;;;;;;5068108;28;19982;-62
2022/08/07 10:16:55;;;;;;;;;;;22.50;43.90;;;;;;5066945;28;20980;-62
2022/08/07 10:19:25;;;;;;;;;;;22.50;43.90;;;;;;5069109;28;20471;-62
2022/08/07 10:21:53;;;;;;;;;;;22.50;44.00;;;;;;5076329;28;20005;-62
2022/08/07 10:24:35;;;;;;;;;;;22.50;44.00;;;;;;5067989;28;19959;-62
2022/08/07 10:27:11;;;;;;;;;;;22.50;44.10;;;;;;5053397;28;19924;-62
2022/08/07 10:29:43;;;;;;;;;;;22.60;44.20;;;;;;5069137;28;19956;-62
2022/08/07 10:32:21;;;;;;;;;;;22.50;44.10;;;;;;5066929;28;19974;-62
2022/08/07 10:34:54;;;;;;;;;;;22.60;44.20;;;;;;5091327;27;19921;-62
2022/08/07 10:37:26;;;;;;;;;;;22.60;44.10;;;;;;5086574;28;20459;-62
2022/08/07 10:39:56;;;;;;;;;;;22.60;44.10;;;;;;5087143;28;19920;-62
2022/08/07 10:42:26;;;;;;;;;;;22.60;44.10;;;;;;5117130;27;19985;-63
2022/08/07 10:45:00;;;;;;;;;;;22.60;44.10;;;;;;5084382;28;19920;-62
2022/08/07 10:47:29;;;;;;;;;;;22.60;44.10;;;;;;5087106;28;20010;-62
2022/08/07 10:49:58;;;;;;;;;;;22.60;44.10;;;;;;5091531;28;19920;-62
2022/08/07 10:52:25;;;;;;;;;;;22.60;43.60;;;;;;5097794;28;20608;-62
2022/08/07 10:54:53;;;;;;;;;;;22.60;44.20;;;;;;5072871;28;20324;-63
2022/08/07 10:57:22;;;;;;;;;;;22.60;44.20;;;;;;5105905;28;19997;-62
2022/08/07 10:59:57;;;;;;;;;;;22.60;44.20;;;;;;5080583;28;19964;-61
2022/08/07 11:02:28;;;;;;;;;;;22.70;44.40;;;;;;5084762;28;19931;-62
2022/08/07 11:04:59;;;;;;;;;;;22.70;44.30;;;;;;5083850;28;19956;-60
2022/08/07 11:07:32;;;;;;;;;;;22.70;44.20;;;;;;5099635;28;19920;-63
2022/08/07 11:09:59;;;;;;;;;;;22.60;44.10;;;;;;5094445;28;19926;-63
2022/08/07 11:12:27;;;;;;;;;;;22.70;44.10;;;;;;5068153;28;20294;-62
2022/08/07 11:14:54;;;;;;;;;;;22.70;44.10;;;;;;5090270;28;20322;-62
2022/08/07 11:17:21;;;;;;;;;;;22.70;44.10;;;;;;5061394;28;19982;-62
2022/08/07 11:19:50;;;;;;;;;;;22.70;44.10;;;;;;5086612;28;19920;-62
2022/08/07 11:22:18;;;;;;;;;;;22.70;44.10;;;;;;5085084;28;19927;-62
2022/08/07 11:24:50;;;;;;;;;;;22.70;44.10;;;;;;5067635;28;19920;-62
2022/08/07 11:27:21;;;;;;;;;;;22.70;44.10;;;;;;5073881;28;20353;-62
2022/08/07 11:29:50;;;;;;;;;;;22.70;44.10;;;;;;5075371;28;20024;-62
2022/08/07 11:32:17;;;;;;;;;;;22.70;44.00;;;;;;5090447;28;20327;-62
2022/08/07 11:34:45;;;;;;;;;;;22.70;44.00;;;;;;5087460;28;19928;-62
2022/08/07 11:37:17;;;;;;;;;;;22.70;44.00;;;;;;5089215;28;19950;-62
2022/08/07 11:39:54;;;;;;;;;;;22.70;44.00;;;;;;5088971;28;20280;-62
2022/08/07 11:42:26;;;;;;;;;;;22.70;43.90;;;;;;5100799;28;20349;-62
2022/08/07 11:44:54;;;;;;;;;;;22.70;43.90;;;;;;5095108;28;19928;-62
2022/08/07 11:47:41;;;;;;;;;;;22.70;44.50;;;;;;5079681;28;19923;-62
2022/08/07 11:50:12;;;;;;;;;;;22.70;43.80;;;;;;5088099;28;20384;-61
2022/08/07 11:52:41;;;;;;;;;;;22.70;43.80;;;;;;5092667;28;19983;-62
2022/08/07 11:55:12;;;;;;;;;;;22.70;43.70;;;;;;5103456;28;20035;-62
2022/08/07 11:57:41;;;;;;;;;;;22.70;43.70;;;;;;5068985;28;19974;-62
2022/08/07 12:00:10;;;;;;;;;;;22.70;43.70;;;;;;5076641;28;20005;-61
2022/08/07 12:02:47;;;;;;;;;;;22.70;43.60;;;;;;5089354;28;20233;-62
2022/08/07 12:05:16;;;;;;;;;;;22.70;43.60;;;;;;5073475;28;19928;-62
2022/08/07 12:07:44;;;;;;;;;;;22.70;43.40;;;;;;5063734;28;19924;-62
2022/08/07 12:10:15;;;;;;;;;;;22.70;43.40;;;;;;5069567;28;19920;-62
2022/08/07 12:12:42;;;;;;;;;;;22.70;43.30;;;;;;5088591;28;19924;-61
2022/08/07 12:15:11;;;;;;;;;;;22.70;43.30;;;;;;5087898;28;19932;-62
2022/08/07 12:17:39;;;;;;;;;;;22.70;43.30;;;;;;5061553;28;20364;-62
2022/08/07 12:20:08;;;;;;;;;;;22.70;43.30;;;;;;5080026;28;19930;-62
2022/08/07 12:22:36;;;;;;;;;;;22.60;43.20;;;;;;5091953;28;19973;-62
2022/08/07 12:27:49;;;;;;;;;;;22.70;43.30;;;;;;5078234;28;19920;-62
2022/08/07 12:30:16;;;;;;;;;;;22.60;43.20;;;;;;5095739;28;19952;-62
2022/08/07 12:32:45;;;;;;;;;;;22.70;43.30;;;;;;5096040;28;19931;-62
2022/08/07 12:35:12;;;;;;;;;;;22.70;43.30;;;;;;5091277;28;20026;-62
2022/08/07 12:37:39;;;;;;;;;;;22.60;43.20;;;;;;5098680;28;19924;-62
2022/08/07 12:40:07;;;;;;;;;;;22.60;43.30;;;;;;5093068;28;20011;-62
2022/08/07 12:42:34;;;;;;;;;;;22.70;43.40;;;;;;5104250;28;19920;-62
2022/08/07 12:45:03;;;;;;;;;;;22.70;43.50;;;;;;5106688;27;19931;-62
2022/08/07 12:47:32;;;;;;;;;;;22.70;43.50;;;;;;5059599;28;19993;-62
2022/08/07 12:50:01;;;;;;;;;;;22.70;43.50;;;;;;5073434;28;19939;-62
2022/08/07 12:52:29;;;;;;;;;;;22.70;43.50;;;;;;5092608;28;19920;-62
2022/08/07 12:54:57;;;;;;;;;;;22.70;43.40;;;;;;5096510;28;19981;-62
2022/08/07 12:57:25;;;;;;;;;;;22.70;43.30;;;;;;5101550;28;20011;-63
2022/08/07 12:59:51;;;;;;;;;;;22.70;43.30;;;;;;5082431;28;19943;-62
2022/08/07 13:02:29;;;;;;;;;;;22.70;43.40;;;;;;5089802;28;20273;-62
2022/08/07 13:05:03;;;;;;;;;;;22.70;43.30;;;;;;5066470;28;20365;-62
2022/08/07 13:07:35;;;;;;;;;;;22.70;43.40;;;;;;5089962;28;19973;-62
2022/08/07 13:10:10;;;;;;;;;;;22.70;43.30;;;;;;5073691;28;19985;-62
2022/08/07 13:12:48;;;;;;;;;;;22.70;43.40;;;;;;5098150;28;19982;-62
2022/08/07 13:15:17;;;;;;;;;;;22.70;43.40;;;;;;5089538;28;19986;-62
2022/08/07 13:17:48;;;;;;;;;;;22.70;43.40;;;;;;5111707;27;19924;-62
2022/08/07 13:20:15;;;;;;;;;;;22.70;43.30;;;;;;5065288;28;20000;-62
2022/08/07 13:22:47;;;;;;;;;;;22.70;43.30;;;;;;5102952;28;19924;-62
2022/08/07 13:25:14;;;;;;;;;;;22.70;43.30;;;;;;5105994;27;20411;-62
2022/08/07 13:27:43;;;;;;;;;;;22.60;43.30;;;;;;5090544;28;19949;-62
2022/08/07 13:30:11;;;;;;;;;;;22.70;43.40;;;;;;5100110;28;19919;-62
2022/08/07 13:32:38;;;;;;;;;;;22.70;43.30;;;;;;5088640;28;20277;-62
2022/08/07 13:35:08;;;;;;;;;;;22.60;43.20;;;;;;5101083;28;19928;-62
2022/08/07 13:37:39;;;;;;;;;;;22.70;43.20;;;;;;5091449;28;20307;-62
2022/08/07 13:40:09;;;;;;;;;;;22.70;43.20;;;;;;5072869;28;19927;-62
2022/08/07 13:42:37;;;;;;;;;;;22.70;43.10;;;;;;5079936;28;20377;-62
2022/08/07 13:45:06;;;;;;;;;;;22.70;43.00;;;;;;5101165;27;20019;-62
2022/08/07 13:47:34;;;;;;;;;;;22.70;43.00;;;;;;5098681;28;20283;-62
2022/08/07 13:50:01;;;;;;;;;;;22.70;43.00;;;;;;5095886;28;19924;-62
2022/08/07 13:52:29;;;;;;;;;;;22.60;43.00;;;;;;5117373;27;19920;-62
2022/08/07 13:54:56;;;;;;;;;;;22.70;43.10;;;;;;5085226;28;19919;-62
2022/08/07 13:57:24;;;;;;;;;;;22.70;43.10;;;;;;5091769;28;19924;-62
2022/08/07 13:59:54;;;;;;;;;;;22.70;43.00;;;;;;5077242;28;19920;-62
2022/08/07 14:02:23;;;;;;;;;;;22.70;43.00;;;;;;5106334;27;19986;-62
2022/08/07 14:04:50;;;;;;;;;;;22.60;42.90;;;;;;5106729;28;19920;-62
2022/08/07 14:07:18;;;;;;;;;;;22.70;43.00;;;;;;5104292;27;19931;-62
2022/08/07 14:09:46;;;;;;;;;;;22.60;42.90;;;;;;5081906;28;19920;-62
2022/08/07 14:12:14;;;;;;;;;;;22.70;43.00;;;;;;5102241;28;19928;-62
2022/08/07 14:14:41;;;;;;;;;;;22.70;43.10;;;;;;5082653;28;19987;-62
2022/08/07 14:17:08;;;;;;;;;;;22.70;43.10;;;;;;5067540;28;19921;-62
2022/08/07 14:19:36;;;;;;;;;;;22.70;43.10;;;;;;5108809;27;19931;-62
2022/08/07 14:22:03;;;;;;;;;;;22.70;43.00;;;;;;5104834;28;19927;-62
2022/08/07 14:24:32;;;;;;;;;;;22.70;43.00;;;;;;5059686;28;20376;-62
2022/08/07 14:27:01;;;;;;;;;;;22.70;43.10;;;;;;5094049;28;20489;-62
2022/08/07 14:29:29;;;;;;;;;;;22.70;43.00;;;;;;5084272;28;19931;-62
2022/08/07 14:31:57;;;;;;;;;;;22.70;42.90;;;;;;5067422;28;20281;-62